sensor_id;sensor_type;location;lat;lon;timestamp;pressure;altitude;pressure_sealevel;temperature;humidity
40872;BME280;26591;43.264;26.940;2023-04-23T00:01:26;99034.22;;;11.42;69.82
40872;BME280;26591;43.264;26.940;2023-04-23T00:03:55;99040.84;;;11.46;69.60
40872;BME280;26591;43.264;26.940;2023-04-23T00:06:22;99035.88;;;11.43;69.50
40872;BME280;26591;43.264;26.940;2023-04-23T00:08:52;99041.69;;;11.38;69.80
40872;BME280;26591;43.264;26.940;2023-04-23T00:11:18;99044.00;;;11.41;69.47
40872;BME280;26591;43.264;26.940;2023-04-23T00:13:43;99038.19;;;11.46;69.21
40872;BME280;26591;43.264;26.940;2023-04-23T00:16:12;99036.56;;;11.37;68.92
40872;BME280;26591;43.264;26.940;2023-04-23T00:18:37;99029.78;;;11.34;69.51
40872;BME280;26591;43.264;26.940;2023-04-23T00:21:03;99028.16;;;11.25;69.74
40872;BME280;26591;43.264;26.940;2023-04-23T00:23:28;99025.31;;;11.35;69.28
40872;BME280;26591;43.264;26.940;2023-04-23T00:25:54;99018.03;;;11.28;69.49
40872;BME280;26591;43.264;26.940;2023-04-23T00:28:19;99023.56;;;11.10;69.84
40872;BME280;26591;43.264;26.940;2023-04-23T00:30:49;99020.59;;;11.13;70.00
40872;BME280;26591;43.264;26.940;2023-04-23T00:33:16;99023.38;;;11.20;69.74
40872;BME280;26591;43.264;26.940;2023-04-23T00:35:41;99019.41;;;11.24;69.79
40872;BME280;26591;43.264;26.940;2023-04-23T00:38:07;99016.25;;;11.29;69.48
40872;BME280;26591;43.264;26.940;2023-04-23T00:40:32;99019.59;;;11.14;69.52
40872;BME280;26591;43.264;26.940;2023-04-23T00:42:59;99013.34;;;10.99;69.98
40872;BME280;26591;43.264;26.940;2023-04-23T00:45:25;99022.91;;;11.08;69.79
40872;BME280;26591;43.264;26.940;2023-04-23T00:47:52;99022.25;;;11.06;69.74
40872;BME280;26591;43.264;26.940;2023-04-23T00:50:18;99019.13;;;11.03;69.65
40872;BME280;26591;43.264;26.940;2023-04-23T00:52:44;99023.09;;;11.07;69.45
40872;BME280;26591;43.264;26.940;2023-04-23T00:55:10;99016.16;;;11.06;68.83
40872;BME280;26591;43.264;26.940;2023-04-23T00:57:36;99022.44;;;10.96;69.69
40872;BME280;26591;43.264;26.940;2023-04-23T01:00:04;99025.94;;;10.80;70.01
40872;BME280;26591;43.264;26.940;2023-04-23T01:02:30;99025.25;;;10.95;69.92
40872;BME280;26591;43.264;26.940;2023-04-23T01:04:57;99022.25;;;11.06;69.45
40872;BME280;26591;43.264;26.940;2023-04-23T01:07:23;99023.31;;;10.80;70.61
40872;BME280;26591;43.264;26.940;2023-04-23T01:09:49;99023.97;;;10.74;69.84
40872;BME280;26591;43.264;26.940;2023-04-23T01:12:15;99028.41;;;10.82;70.20
40872;BME280;26591;43.264;26.940;2023-04-23T01:14:41;99025.63;;;10.75;70.33
40872;BME280;26591;43.264;26.940;2023-04-23T01:17:07;99027.44;;;10.75;70.48
40872;BME280;26591;43.264;26.940;2023-04-23T01:19:34;99029.78;;;10.61;71.16
40872;BME280;26591;43.264;26.940;2023-04-23T01:22:01;99028.44;;;10.74;70.65
40872;BME280;26591;43.264;26.940;2023-04-23T01:24:28;99030.97;;;10.59;70.65
40872;BME280;26591;43.264;26.940;2023-04-23T01:26:56;99028.78;;;10.46;70.41
40872;BME280;26591;43.264;26.940;2023-04-23T01:29:23;99035.38;;;10.17;71.64
40872;BME280;26591;43.264;26.940;2023-04-23T01:31:49;99035.69;;;10.14;71.63
40872;BME280;26591;43.264;26.940;2023-04-23T01:34:15;99038.31;;;10.05;72.13
40872;BME280;26591;43.264;26.940;2023-04-23T01:36:42;99038.47;;;10.04;72.99
40872;BME280;26591;43.264;26.940;2023-04-23T01:39:08;99034.53;;;10.00;73.64
40872;BME280;26591;43.264;26.940;2023-04-23T01:41:34;99032.03;;;9.98;73.72
40872;BME280;26591;43.264;26.940;2023-04-23T01:44:00;99033.81;;;9.89;74.04
40872;BME280;26591;43.264;26.940;2023-04-23T01:46:26;99038.28;;;9.97;74.38
40872;BME280;26591;43.264;26.940;2023-04-23T01:48:52;99037.34;;;10.06;73.66
40872;BME280;26591;43.264;26.940;2023-04-23T01:51:18;99044.75;;;9.95;74.38
40872;BME280;26591;43.264;26.940;2023-04-23T01:53:43;99040.75;;;9.82;74.57
40872;BME280;26591;43.264;26.940;2023-04-23T01:56:09;99044.06;;;10.01;74.79
40872;BME280;26591;43.264;26.940;2023-04-23T01:58:35;99039.81;;;10.16;73.68
40872;BME280;26591;43.264;26.940;2023-04-23T02:01:01;99041.78;;;10.06;73.67
40872;BME280;26591;43.264;26.940;2023-04-23T02:03:27;99045.41;;;10.05;73.45
40872;BME280;26591;43.264;26.940;2023-04-23T02:05:55;99043.25;;;10.00;73.41
40872;BME280;26591;43.264;26.940;2023-04-23T02:08:23;99039.47;;;10.03;72.94
40872;BME280;26591;43.264;26.940;2023-04-23T02:10:48;99048.19;;;9.95;74.07
40872;BME280;26591;43.264;26.940;2023-04-23T02:13:14;99039.81;;;10.16;73.04
40872;BME280;26591;43.264;26.940;2023-04-23T02:15:40;99039.81;;;10.08;72.77
40872;BME280;26591;43.264;26.940;2023-04-23T02:18:07;99038.63;;;9.94;72.45
40872;BME280;26591;43.264;26.940;2023-04-23T02:20:33;99041.75;;;9.81;71.66
40872;BME280;26591;43.264;26.940;2023-04-23T02:23:06;99039.03;;;9.65;72.67
40872;BME280;26591;43.264;26.940;2023-04-23T02:25:32;99034.06;;;9.61;73.79
40872;BME280;26591;43.264;26.940;2023-04-23T02:27:58;99037.16;;;9.49;73.98
40872;BME280;26591;43.264;26.940;2023-04-23T02:30:26;99032.53;;;9.42;75.04
40872;BME280;26591;43.264;26.940;2023-04-23T02:32:51;99039.34;;;9.53;74.17
40872;BME280;26591;43.264;26.940;2023-04-23T02:35:17;99035.53;;;9.56;74.21
40872;BME280;26591;43.264;26.940;2023-04-23T02:37:43;99036.03;;;9.59;74.10
40872;BME280;26591;43.264;26.940;2023-04-23T02:40:33;99034.72;;;9.55;74.38
40872;BME280;26591;43.264;26.940;2023-04-23T02:42:59;99028.41;;;9.48;74.48
40872;BME280;26591;43.264;26.940;2023-04-23T02:45:24;99035.09;;;9.34;74.66
40872;BME280;26591;43.264;26.940;2023-04-23T02:47:49;99036.97;;;9.42;73.91
40872;BME280;26591;43.264;26.940;2023-04-23T02:50:17;99041.00;;;9.54;74.42
40872;BME280;26591;43.264;26.940;2023-04-23T02:52:43;99034.06;;;9.53;74.89
40872;BME280;26591;43.264;26.940;2023-04-23T02:55:11;99031.75;;;9.58;75.16
40872;BME280;26591;43.264;26.940;2023-04-23T02:57:37;99041.19;;;9.61;75.55
40872;BME280;26591;43.264;26.940;2023-04-23T03:00:03;99037.75;;;9.69;76.01
40872;BME280;26591;43.264;26.940;2023-04-23T03:02:32;99037.06;;;9.67;75.72
40872;BME280;26591;43.264;26.940;2023-04-23T03:04:57;99042.31;;;9.58;76.46
40872;BME280;26591;43.264;26.940;2023-04-23T03:07:23;99037.75;;;9.69;75.79
40872;BME280;26591;43.264;26.940;2023-04-23T03:09:51;99039.53;;;9.68;75.41
40872;BME280;26591;43.264;26.940;2023-04-23T03:12:16;99040.22;;;9.70;74.66
40872;BME280;26591;43.264;26.940;2023-04-23T03:14:42;99041.38;;;9.68;73.83
40872;BME280;26591;43.264;26.940;2023-04-23T03:17:08;99051.69;;;9.44;74.92
40872;BME280;26591;43.264;26.940;2023-04-23T03:19:34;99046.41;;;9.53;74.60
40872;BME280;26591;43.264;26.940;2023-04-23T03:21:59;99049.03;;;9.44;74.44
40872;BME280;26591;43.264;26.940;2023-04-23T03:24:27;99048.84;;;9.38;74.22
40872;BME280;26591;43.264;26.940;2023-04-23T03:26:56;99056.13;;;9.44;74.22
40872;BME280;26591;43.264;26.940;2023-04-23T03:29:22;99052.22;;;9.56;73.61
40872;BME280;26591;43.264;26.940;2023-04-23T03:31:48;99052.94;;;9.32;74.02
40872;BME280;26591;43.264;26.940;2023-04-23T03:34:13;99060.94;;;9.49;74.03
40872;BME280;26591;43.264;26.940;2023-04-23T03:36:39;99059.03;;;9.67;74.12
40872;BME280;26591;43.264;26.940;2023-04-23T03:39:05;99057.81;;;10.04;74.00
40872;BME280;26591;43.264;26.940;2023-04-23T03:41:30;99061.00;;;10.33;74.80
40872;BME280;26591;43.264;26.940;2023-04-23T03:43:55;99054.78;;;10.59;75.33
40872;BME280;26591;43.264;26.940;2023-04-23T03:46:21;99060.69;;;10.77;76.40
40872;BME280;26591;43.264;26.940;2023-04-23T03:48:46;99066.75;;;11.11;76.28
40872;BME280;26591;43.264;26.940;2023-04-23T03:51:14;99065.81;;;11.60;74.98
40872;BME280;26591;43.264;26.940;2023-04-23T03:53:40;99069.66;;;11.89;73.19
40872;BME280;26591;43.264;26.940;2023-04-23T03:56:06;99074.56;;;12.32;70.49
40872;BME280;26591;43.264;26.940;2023-04-23T03:58:31;99078.72;;;12.73;68.71
40872;BME280;26591;43.264;26.940;2023-04-23T04:00:56;99076.22;;;13.24;66.56
40872;BME280;26591;43.264;26.940;2023-04-23T04:03:22;99078.97;;;13.91;64.96
40872;BME280;26591;43.264;26.940;2023-04-23T04:05:47;99075.25;;;14.44;62.13
40872;BME280;26591;43.264;26.940;2023-04-23T04:08:13;99078.59;;;14.74;60.28
40872;BME280;26591;43.264;26.940;2023-04-23T04:10:38;99083.13;;;15.31;59.23
40872;BME280;26591;43.264;26.940;2023-04-23T04:13:05;99078.63;;;15.38;57.64
40872;BME280;26591;43.264;26.940;2023-04-23T04:15:31;99076.31;;;15.70;57.03
40872;BME280;26591;43.264;26.940;2023-04-23T04:17:57;99086.22;;;16.25;56.02
40872;BME280;26591;43.264;26.940;2023-04-23T04:20:23;99089.34;;;16.55;54.54
40872;BME280;26591;43.264;26.940;2023-04-23T04:22:50;99087.28;;;16.77;53.58
40872;BME280;26591;43.264;26.940;2023-04-23T04:25:15;99086.88;;;16.60;52.63
40872;BME280;26591;43.264;26.940;2023-04-23T04:27:41;99090.47;;;16.19;53.18
40872;BME280;26591;43.264;26.940;2023-04-23T04:30:07;99087.84;;;15.70;53.72
40872;BME280;26591;43.264;26.940;2023-04-23T04:32:33;99086.28;;;15.48;54.67
40872;BME280;26591;43.264;26.940;2023-04-23T04:34:58;99084.56;;;15.33;55.60
40872;BME280;26591;43.264;26.940;2023-04-23T04:37:24;99089.00;;;15.19;55.65
40872;BME280;26591;43.264;26.940;2023-04-23T04:39:49;99085.94;;;14.94;56.32
40872;BME280;26591;43.264;26.940;2023-04-23T04:42:15;99095.00;;;14.56;57.03
40872;BME280;26591;43.264;26.940;2023-04-23T04:44:42;99096.78;;;14.27;57.99
40872;BME280;26591;43.264;26.940;2023-04-23T04:47:07;99103.69;;;14.22;58.54
40872;BME280;26591;43.264;26.940;2023-04-23T04:49:33;99102.38;;;13.96;58.39
40872;BME280;26591;43.264;26.940;2023-04-23T04:51:59;99110.28;;;13.74;59.84
40872;BME280;26591;43.264;26.940;2023-04-23T04:54:24;99118.03;;;12.77;62.00
40872;BME280;26591;43.264;26.940;2023-04-23T04:56:50;99116.31;;;12.06;64.57
40872;BME280;26591;43.264;26.940;2023-04-23T04:59:16;99114.19;;;12.33;64.27
40872;BME280;26591;43.264;26.940;2023-04-23T05:01:42;99123.09;;;12.41;64.84
40872;BME280;26591;43.264;26.940;2023-04-23T05:04:08;99125.06;;;12.47;64.59
40872;BME280;26591;43.264;26.940;2023-04-23T05:06:34;99121.06;;;12.19;65.62
40872;BME280;26591;43.264;26.940;2023-04-23T05:08:59;99125.00;;;12.55;65.04
40872;BME280;26591;43.264;26.940;2023-04-23T05:11:25;99129.38;;;12.71;64.44
40872;BME280;26591;43.264;26.940;2023-04-23T05:13:50;99122.00;;;12.58;65.28
40872;BME280;26591;43.264;26.940;2023-04-23T05:16:17;99121.34;;;12.94;65.07
40872;BME280;26591;43.264;26.940;2023-04-23T05:18:43;99126.91;;;13.08;64.02
40872;BME280;26591;43.264;26.940;2023-04-23T05:21:09;99124.47;;;13.36;63.43
40872;BME280;26591;43.264;26.940;2023-04-23T05:23:35;99133.75;;;13.40;63.06
40872;BME280;26591;43.264;26.940;2023-04-23T05:26:01;99128.25;;;13.42;62.56
40872;BME280;26591;43.264;26.940;2023-04-23T05:28:28;99136.28;;;12.95;64.98
40872;BME280;26591;43.264;26.940;2023-04-23T05:30:54;99141.97;;;13.31;64.54
40872;BME280;26591;43.264;26.940;2023-04-23T05:33:19;99137.50;;;13.61;63.22
40872;BME280;26591;43.264;26.940;2023-04-23T05:35:47;99139.59;;;13.36;62.52
40872;BME280;26591;43.264;26.940;2023-04-23T05:38:12;99144.31;;;13.64;62.49
40872;BME280;26591;43.264;26.940;2023-04-23T05:40:38;99130.03;;;14.16;61.87
40872;BME280;26591;43.264;26.940;2023-04-23T05:43:04;99140.94;;;14.58;60.69
40872;BME280;26591;43.264;26.940;2023-04-23T05:45:30;99133.69;;;14.95;60.45
40872;BME280;26591;43.264;26.940;2023-04-23T05:47:56;99132.78;;;15.38;59.28
40872;BME280;26591;43.264;26.940;2023-04-23T05:50:21;99142.63;;;16.08;57.26
40872;BME280;26591;43.264;26.940;2023-04-23T05:52:47;99142.63;;;16.90;56.30
40872;BME280;26591;43.264;26.940;2023-04-23T05:55:12;99141.31;;;17.60;53.60
40872;BME280;26591;43.264;26.940;2023-04-23T05:57:42;99142.50;;;17.84;52.91
40872;BME280;26591;43.264;26.940;2023-04-23T06:03:29;99148.03;;;18.81;50.36
40872;BME280;26591;43.264;26.940;2023-04-23T06:05:55;99145.31;;;19.13;49.44
40872;BME280;26591;43.264;26.940;2023-04-23T06:08:20;99141.44;;;19.71;48.17
40872;BME280;26591;43.264;26.940;2023-04-23T06:10:46;99138.53;;;20.28;46.75
40872;BME280;26591;43.264;26.940;2023-04-23T06:13:11;99145.13;;;20.14;45.96
40872;BME280;26591;43.264;26.940;2023-04-23T06:15:39;99138.78;;;20.39;46.10
40872;BME280;26591;43.264;26.940;2023-04-23T06:18:05;99143.34;;;20.81;44.42
40872;BME280;26591;43.264;26.940;2023-04-23T06:20:30;99142.84;;;21.14;44.31
40872;BME280;26591;43.264;26.940;2023-04-23T06:23:21;99141.09;;;21.20;44.42
40872;BME280;26591;43.264;26.940;2023-04-23T06:25:47;99145.41;;;21.57;43.28
40872;BME280;26591;43.264;26.940;2023-04-23T06:28:12;99140.16;;;21.62;43.17
40872;BME280;26591;43.264;26.940;2023-04-23T06:30:38;99141.78;;;21.27;42.96
40872;BME280;26591;43.264;26.940;2023-04-23T06:33:03;99151.50;;;21.76;42.44
40872;BME280;26591;43.264;26.940;2023-04-23T06:35:29;99145.78;;;21.60;42.63
40872;BME280;26591;43.264;26.940;2023-04-23T06:37:55;99143.63;;;21.86;41.45
40872;BME280;26591;43.264;26.940;2023-04-23T06:40:20;99150.63;;;21.99;41.54
40872;BME280;26591;43.264;26.940;2023-04-23T06:42:46;99151.13;;;22.25;40.60
40872;BME280;26591;43.264;26.940;2023-04-23T06:45:11;99144.38;;;22.39;40.62
40872;BME280;26591;43.264;26.940;2023-04-23T06:47:37;99142.88;;;22.44;40.20
40872;BME280;26591;43.264;26.940;2023-04-23T06:50:03;99139.41;;;22.60;40.60
40872;BME280;26591;43.264;26.940;2023-04-23T06:52:30;99151.00;;;22.61;40.87
40872;BME280;26591;43.264;26.940;2023-04-23T06:54:55;99145.47;;;23.01;39.89
40872;BME280;26591;43.264;26.940;2023-04-23T06:57:20;99143.25;;;22.98;39.20
40872;BME280;26591;43.264;26.940;2023-04-23T06:59:46;99149.72;;;22.97;39.67
40872;BME280;26591;43.264;26.940;2023-04-23T07:02:12;99148.31;;;23.12;39.35
40872;BME280;26591;43.264;26.940;2023-04-23T07:04:37;99151.28;;;22.93;38.82
40872;BME280;26591;43.264;26.940;2023-04-23T07:07:02;99146.69;;;22.77;38.70
40872;BME280;26591;43.264;26.940;2023-04-23T07:09:28;99148.53;;;22.30;39.91
40872;BME280;26591;43.264;26.940;2023-04-23T07:11:54;99153.47;;;22.62;40.40
40872;BME280;26591;43.264;26.940;2023-04-23T07:14:20;99153.31;;;22.69;39.61
40872;BME280;26591;43.264;26.940;2023-04-23T07:16:46;99147.34;;;22.84;38.90
40872;BME280;26591;43.264;26.940;2023-04-23T07:19:11;99146.38;;;22.90;39.24
40872;BME280;26591;43.264;26.940;2023-04-23T07:21:36;99152.63;;;22.62;40.46
40872;BME280;26591;43.264;26.940;2023-04-23T07:24:02;99151.75;;;22.73;39.29
40872;BME280;26591;43.264;26.940;2023-04-23T07:26:34;99149.00;;;22.27;40.65
40872;BME280;26591;43.264;26.940;2023-04-23T07:29:01;99142.84;;;21.50;40.44
40872;BME280;26591;43.264;26.940;2023-04-23T07:31:27;99147.53;;;21.31;42.68
40872;BME280;26591;43.264;26.940;2023-04-23T07:33:55;99143.38;;;20.20;42.95
40872;BME280;26591;43.264;26.940;2023-04-23T07:36:21;99144.56;;;20.85;41.61
40872;BME280;26591;43.264;26.940;2023-04-23T07:38:46;99140.38;;;21.25;42.05
40872;BME280;26591;43.264;26.940;2023-04-23T07:41:12;99149.75;;;21.58;40.95
40872;BME280;26591;43.264;26.940;2023-04-23T07:43:38;99137.91;;;21.71;37.28
40872;BME280;26591;43.264;26.940;2023-04-23T07:46:06;99143.44;;;21.64;39.28
40872;BME280;26591;43.264;26.940;2023-04-23T07:48:32;99137.44;;;21.74;39.99
40872;BME280;26591;43.264;26.940;2023-04-23T07:50:59;99142.47;;;20.99;38.98
40872;BME280;26591;43.264;26.940;2023-04-23T07:53:25;99132.44;;;20.03;41.51
40872;BME280;26591;43.264;26.940;2023-04-23T07:55:56;99131.53;;;20.39;40.45
40872;BME280;26591;43.264;26.940;2023-04-23T08:00:48;99131.78;;;19.89;39.75
40872;BME280;26591;43.264;26.940;2023-04-23T08:03:13;99126.03;;;19.85;40.23
40872;BME280;26591;43.264;26.940;2023-04-23T08:05:39;99121.56;;;19.97;38.87
40872;BME280;26591;43.264;26.940;2023-04-23T08:08:06;99127.78;;;19.73;38.97
40872;BME280;26591;43.264;26.940;2023-04-23T08:10:33;99123.47;;;19.53;39.67
40872;BME280;26591;43.264;26.940;2023-04-23T08:12:58;99124.00;;;19.62;37.23
40872;BME280;26591;43.264;26.940;2023-04-23T08:15:24;99118.09;;;19.34;38.23
40872;BME280;26591;43.264;26.940;2023-04-23T08:17:49;99124.38;;;18.39;40.16
40872;BME280;26591;43.264;26.940;2023-04-23T08:20:15;99124.94;;;18.80;39.19
40872;BME280;26591;43.264;26.940;2023-04-23T08:22:40;99116.97;;;18.66;38.08
40872;BME280;26591;43.264;26.940;2023-04-23T08:25:06;99123.28;;;19.11;36.77
40872;BME280;26591;43.264;26.940;2023-04-23T08:27:37;99126.66;;;19.80;36.23
40872;BME280;26591;43.264;26.940;2023-04-23T08:30:03;99118.31;;;20.07;35.81
40872;BME280;26591;43.264;26.940;2023-04-23T08:32:29;99126.81;;;19.86;36.60
40872;BME280;26591;43.264;26.940;2023-04-23T08:34:54;99121.16;;;19.75;36.21
40872;BME280;26591;43.264;26.940;2023-04-23T08:37:20;99130.25;;;20.11;35.46
40872;BME280;26591;43.264;26.940;2023-04-23T08:39:45;99118.78;;;20.04;36.03
40872;BME280;26591;43.264;26.940;2023-04-23T08:42:32;99118.91;;;20.09;36.92
40872;BME280;26591;43.264;26.940;2023-04-23T08:44:59;99123.72;;;20.38;37.53
40872;BME280;26591;43.264;26.940;2023-04-23T08:47:28;99112.00;;;20.74;35.70
40872;BME280;26591;43.264;26.940;2023-04-23T08:49:54;99113.56;;;20.40;34.35
40872;BME280;26591;43.264;26.940;2023-04-23T08:52:23;99110.06;;;19.53;35.54
40872;BME280;26591;43.264;26.940;2023-04-23T08:54:51;99105.34;;;19.67;36.24
40872;BME280;26591;43.264;26.940;2023-04-23T08:57:18;99106.28;;;19.17;36.09
40872;BME280;26591;43.264;26.940;2023-04-23T08:59:45;99101.78;;;19.55;35.35
40872;BME280;26591;43.264;26.940;2023-04-23T09:02:11;99100.22;;;19.65;36.64
40872;BME280;26591;43.264;26.940;2023-04-23T09:04:38;99100.66;;;20.00;36.17
40872;BME280;26591;43.264;26.940;2023-04-23T09:07:04;99092.78;;;19.24;37.82
40872;BME280;26591;43.264;26.940;2023-04-23T09:09:38;99090.59;;;19.76;37.56
40872;BME280;26591;43.264;26.940;2023-04-23T09:12:08;99096.63;;;19.53;37.30
40872;BME280;26591;43.264;26.940;2023-04-23T09:14:34;99088.84;;;20.01;37.32
40872;BME280;26591;43.264;26.940;2023-04-23T09:17:01;99092.56;;;20.61;37.71
40872;BME280;26591;43.264;26.940;2023-04-23T09:19:27;99091.47;;;20.38;35.38
40872;BME280;26591;43.264;26.940;2023-04-23T09:21:53;99084.19;;;19.77;36.63
40872;BME280;26591;43.264;26.940;2023-04-23T09:24:23;99092.16;;;20.33;35.79
40872;BME280;26591;43.264;26.940;2023-04-23T09:26:50;99083.50;;;20.31;35.66
40872;BME280;26591;43.264;26.940;2023-04-23T09:29:18;99079.38;;;19.98;35.97
40872;BME280;26591;43.264;26.940;2023-04-23T09:31:49;99082.69;;;20.42;35.99
40872;BME280;26591;43.264;26.940;2023-04-23T09:34:19;99079.25;;;20.23;34.86
40872;BME280;26591;43.264;26.940;2023-04-23T09:36:47;99078.25;;;20.91;34.45
40872;BME280;26591;43.264;26.940;2023-04-23T09:39:16;99069.44;;;21.43;33.79
40872;BME280;26591;43.264;26.940;2023-04-23T09:41:43;99068.31;;;21.39;33.33
40872;BME280;26591;43.264;26.940;2023-04-23T09:44:10;99066.03;;;21.47;33.02
40872;BME280;26591;43.264;26.940;2023-04-23T09:46:41;99065.09;;;21.54;35.81
40872;BME280;26591;43.264;26.940;2023-04-23T09:49:09;99066.16;;;21.53;34.22
40872;BME280;26591;43.264;26.940;2023-04-23T09:51:39;99066.63;;;21.73;33.68
40872;BME280;26591;43.264;26.940;2023-04-23T09:56:41;99065.81;;;21.37;32.59
40872;BME280;26591;43.264;26.940;2023-04-23T09:59:28;99064.63;;;20.50;33.65
40872;BME280;26591;43.264;26.940;2023-04-23T10:01:54;99058.03;;;21.00;34.07
40872;BME280;26591;43.264;26.940;2023-04-23T10:04:24;99051.09;;;21.04;33.26
40872;BME280;26591;43.264;26.940;2023-04-23T10:07:00;99057.22;;;20.33;34.23
40872;BME280;26591;43.264;26.940;2023-04-23T10:09:27;99050.75;;;19.73;34.75
40872;BME280;26591;43.264;26.940;2023-04-23T10:11:57;99048.97;;;20.16;34.36
40872;BME280;26591;43.264;26.940;2023-04-23T10:14:24;99050.16;;;20.74;33.88
40872;BME280;26591;43.264;26.940;2023-04-23T10:16:51;99038.00;;;21.19;33.60
40872;BME280;26591;43.264;26.940;2023-04-23T10:19:21;99045.94;;;22.20;33.49
40872;BME280;26591;43.264;26.940;2023-04-23T10:21:54;99050.16;;;22.79;33.08
40872;BME280;26591;43.264;26.940;2023-04-23T10:24:26;99044.09;;;22.08;31.71
40872;BME280;26591;43.264;26.940;2023-04-23T10:26:56;99041.69;;;21.66;33.07
40872;BME280;26591;43.264;26.940;2023-04-23T10:29:28;99029.97;;;21.08;32.78
40872;BME280;26591;43.264;26.940;2023-04-23T10:31:59;99030.75;;;21.32;32.22
40872;BME280;26591;43.264;26.940;2023-04-23T10:34:26;99027.41;;;21.54;32.17
40872;BME280;26591;43.264;26.940;2023-04-23T10:36:52;99030.88;;;21.78;31.40
40872;BME280;26591;43.264;26.940;2023-04-23T10:39:23;99036.34;;;21.30;31.58
40872;BME280;26591;43.264;26.940;2023-04-23T10:41:50;99022.47;;;22.03;31.44
40872;BME280;26591;43.264;26.940;2023-04-23T10:44:19;99025.38;;;22.82;30.68
40872;BME280;26591;43.264;26.940;2023-04-23T10:46:54;99017.53;;;23.20;29.72
40872;BME280;26591;43.264;26.940;2023-04-23T10:49:24;99016.31;;;23.10;30.47
40872;BME280;26591;43.264;26.940;2023-04-23T10:52:12;99019.59;;;23.12;31.84
40872;BME280;26591;43.264;26.940;2023-04-23T10:54:41;99015.16;;;23.45;31.52
40872;BME280;26591;43.264;26.940;2023-04-23T10:57:07;99009.72;;;22.16;31.89
40872;BME280;26591;43.264;26.940;2023-04-23T10:59:35;99009.78;;;21.34;32.40
40872;BME280;26591;43.264;26.940;2023-04-23T11:02:07;99011.66;;;21.22;32.86
40872;BME280;26591;43.264;26.940;2023-04-23T11:04:35;99003.28;;;21.59;32.44
40872;BME280;26591;43.264;26.940;2023-04-23T11:07:07;99004.09;;;20.83;33.16
40872;BME280;26591;43.264;26.940;2023-04-23T11:12:02;98994.19;;;21.89;34.05
40872;BME280;26591;43.264;26.940;2023-04-23T11:17:00;98995.22;;;21.47;32.76
40872;BME280;26591;43.264;26.940;2023-04-23T11:19:25;98992.09;;;22.25;31.35
40872;BME280;26591;43.264;26.940;2023-04-23T11:22:16;98982.91;;;22.94;30.50
40872;BME280;26591;43.264;26.940;2023-04-23T11:27:53;98984.59;;;22.78;30.78
40872;BME280;26591;43.264;26.940;2023-04-23T11:30:24;98983.03;;;22.31;31.57
40872;BME280;26591;43.264;26.940;2023-04-23T11:32:52;98976.31;;;21.71;32.58
40872;BME280;26591;43.264;26.940;2023-04-23T11:35:20;98982.50;;;21.42;33.03
40872;BME280;26591;43.264;26.940;2023-04-23T11:37:46;98972.69;;;21.94;32.27
40872;BME280;26591;43.264;26.940;2023-04-23T11:40:18;98984.63;;;21.98;32.84
40872;BME280;26591;43.264;26.940;2023-04-23T11:42:48;98984.06;;;21.96;31.66
40872;BME280;26591;43.264;26.940;2023-04-23T11:45:18;98982.44;;;21.13;33.50
40872;BME280;26591;43.264;26.940;2023-04-23T11:47:45;98974.50;;;21.47;33.39
40872;BME280;26591;43.264;26.940;2023-04-23T11:50:18;98981.56;;;22.40;32.13
40872;BME280;26591;43.264;26.940;2023-04-23T11:52:44;98974.44;;;22.85;30.75
40872;BME280;26591;43.264;26.940;2023-04-23T11:55:10;98975.66;;;23.17;29.83
40872;BME280;26591;43.264;26.940;2023-04-23T11:57:36;98966.13;;;23.54;29.06
40872;BME280;26591;43.264;26.940;2023-04-23T12:00:23;98957.97;;;22.65;30.56
40872;BME280;26591;43.264;26.940;2023-04-23T12:02:50;98959.53;;;21.40;31.31
40872;BME280;26591;43.264;26.940;2023-04-23T12:05:40;98958.34;;;22.74;30.65
40872;BME280;26591;43.264;26.940;2023-04-23T12:08:11;98951.88;;;23.36;30.91
40872;BME280;26591;43.264;26.940;2023-04-23T12:10:49;98948.38;;;22.23;31.23
40872;BME280;26591;43.264;26.940;2023-04-23T12:13:17;98938.88;;;21.69;31.21
40872;BME280;26591;43.264;26.940;2023-04-23T12:15:51;98941.56;;;21.57;31.39
40872;BME280;26591;43.264;26.940;2023-04-23T12:18:17;98939.00;;;21.91;30.63
40872;BME280;26591;43.264;26.940;2023-04-23T12:20:43;98930.09;;;22.08;29.92
40872;BME280;26591;43.264;26.940;2023-04-23T12:23:09;98931.56;;;22.67;29.15
40872;BME280;26591;43.264;26.940;2023-04-23T12:25:35;98930.28;;;22.52;28.62
40872;BME280;26591;43.264;26.940;2023-04-23T12:28:02;98922.75;;;22.20;29.04
40872;BME280;26591;43.264;26.940;2023-04-23T12:30:59;98918.00;;;22.62;28.71
40872;BME280;26591;43.264;26.940;2023-04-23T12:36:53;98910.31;;;21.56;29.83
40872;BME280;26591;43.264;26.940;2023-04-23T12:39:30;98917.00;;;21.66;29.71
40872;BME280;26591;43.264;26.940;2023-04-23T12:42:05;98905.09;;;21.78;29.62
40872;BME280;26591;43.264;26.940;2023-04-23T12:44:36;98904.53;;;22.10;30.12
40872;BME280;26591;43.264;26.940;2023-04-23T12:47:39;98904.81;;;22.65;29.51
40872;BME280;26591;43.264;26.940;2023-04-23T12:50:05;98895.94;;;22.87;29.67
40872;BME280;26591;43.264;26.940;2023-04-23T12:52:30;98902.31;;;23.20;29.26
40872;BME280;26591;43.264;26.940;2023-04-23T12:54:56;98887.53;;;23.06;28.39
40872;BME280;26591;43.264;26.940;2023-04-23T12:57:23;98878.69;;;22.66;29.83
40872;BME280;26591;43.264;26.940;2023-04-23T12:59:49;98891.69;;;22.91;30.25
40872;BME280;26591;43.264;26.940;2023-04-23T13:02:14;98888.59;;;22.60;29.53
40872;BME280;26591;43.264;26.940;2023-04-23T13:04:40;98885.75;;;21.64;31.05
40872;BME280;26591;43.264;26.940;2023-04-23T13:07:05;98884.44;;;21.67;30.29
40872;BME280;26591;43.264;26.940;2023-04-23T13:09:31;98878.53;;;21.24;31.63
40872;BME280;26591;43.264;26.940;2023-04-23T13:11:56;98874.69;;;21.20;31.70